Time;durP1;ratioP1;P1;durP2;ratioP2;P2;SDS_P1;SDS_P2;PMS_P1;PMS_P2;Temp;Humidity;BMP_temperature;BMP_pressure;BME280_temperature;BME280_humidity;BME280_pressure;Samples;Min_cycle;Max_cycle;Signal;HPM_P1;HPM_P2
2022/12/15 00:40:07;;;;;;;17.27;9.95;;;;;;;;;;7387836;19;20461;-69
2022/12/15 00:42:32;;;;;;;24.38;10.70;;;;;;;;;;7388986;19;20006;-68
2022/12/15 00:44:58;;;;;;;28.98;11.23;;;;;;;;;;7387420;19;19999;-70
2022/12/15 00:47:24;;;;;;;26.20;10.57;;;;;;;;;;7385904;19;20002;-68
2022/12/15 01:22:41;;;;;;;25.98;10.05;;;;;;;;;;7386996;19;20730;-69
2022/12/15 01:25:08;;;;;;;22.40;11.02;;;;;;;;;;7387959;19;20007;-69
2022/12/15 01:27:34;;;;;;;24.15;10.77;;;;;;;;;;7386121;19;20002;-69
2022/12/15 01:30:01;;;;;;;22.65;10.45;;;;;;;;;;7385862;19;20007;-69
2022/12/15 01:32:27;;;;;;;23.58;9.90;;;;;;;;;;7385774;19;20003;-69
2022/12/15 01:34:53;;;;;;;21.95;11.05;;;;;;;;;;7387109;19;20006;-69
2022/12/15 01:37:18;;;;;;;25.75;10.45;;;;;;;;;;7387261;19;20469;-69
2022/12/15 01:42:28;;;;;;;23.35;10.48;;;;;;;;;;7387470;19;20027;-69
2022/12/15 01:45:28;;;;;;;22.98;10.50;;;;;;;;;;7385024;19;20066;-69
2022/12/15 01:48:15;;;;;;;24.30;10.20;;;;;;;;;;7385168;19;20472;-69
2022/12/15 01:50:49;;;;;;;19.98;10.10;;;;;;;;;;7386847;19;20006;-69
2022/12/15 01:53:16;;;;;;;20.25;9.95;;;;;;;;;;7386103;19;20014;-69
2022/12/15 01:55:43;;;;;;;24.02;9.98;;;;;;;;;;7386727;19;20003;-69
2022/12/15 01:58:12;;;;;;;20.65;9.90;;;;;;;;;;7386707;19;20005;-70
2022/12/15 02:00:40;;;;;;;19.67;8.65;;;;;;;;;;7382917;19;20091;-69
2022/12/15 02:03:06;;;;;;;18.83;8.85;;;;;;;;;;7387080;19;20003;-70
2022/12/15 02:05:32;;;;;;;20.35;8.95;;;;;;;;;;7387371;19;20427;-69
2022/12/15 02:07:59;;;;;;;18.58;9.13;;;;;;;;;;7384289;19;20361;-69
2022/12/15 02:10:31;;;;;;;18.48;8.90;;;;;;;;;;7386623;19;20015;-70
2022/12/15 02:13:15;;;;;;;19.27;9.30;;;;;;;;;;7385554;19;20480;-71
2022/12/15 02:15:49;;;;;;;18.60;9.43;;;;;;;;;;7390311;19;20003;-69
2022/12/15 02:18:48;;;;;;;21.40;10.75;;;;;;;;;;7386327;19;20007;-69
2022/12/15 02:21:18;;;;;;;19.77;9.18;;;;;;;;;;7385940;19;20358;-69
2022/12/15 02:24:18;;;;;;;17.60;8.40;;;;;;;;;;7383426;19;20002;-69
2022/12/15 02:26:58;;;;;;;19.63;8.73;;;;;;;;;;7385059;19;20010;-69
2022/12/15 02:29:38;;;;;;;15.38;7.35;;;;;;;;;;7383689;19;20007;-69
2022/12/15 02:32:10;;;;;;;21.87;9.17;;;;;;;;;;7390706;19;20471;-69
2022/12/15 02:34:44;;;;;;;18.75;8.48;;;;;;;;;;7392290;19;20259;-70
2022/12/15 02:37:12;;;;;;;19.27;9.05;;;;;;;;;;7391404;19;19999;-70
2022/12/15 02:39:37;;;;;;;15.48;8.25;;;;;;;;;;7391317;19;20017;-69
2022/12/15 02:42:03;;;;;;;22.85;8.45;;;;;;;;;;7392797;19;19995;-69
2022/12/15 02:44:36;;;;;;;16.30;8.43;;;;;;;;;;7392281;19;19999;-69
2022/12/15 02:47:01;;;;;;;20.65;7.93;;;;;;;;;;7391377;19;20002;-69
2022/12/15 02:49:40;;;;;;;22.27;10.13;;;;;;;;;;7390876;19;20003;-69
2022/12/15 02:52:27;;;;;;;16.35;8.50;;;;;;;;;;7392406;19;19998;-69
2022/12/15 02:55:15;;;;;;;28.75;9.23;;;;;;;;;;7392711;19;19994;-69
2022/12/15 02:57:53;;;;;;;19.50;8.20;;;;;;;;;;7392402;19;19999;-69
2022/12/15 03:00:19;;;;;;;25.20;9.25;;;;;;;;;;7389232;19;20011;-67
2022/12/15 03:02:49;;;;;;;18.70;8.35;;;;;;;;;;7389596;19;20406;-68
2022/12/15 03:05:16;;;;;;;20.08;8.18;;;;;;;;;;7392546;19;19995;-68
2022/12/15 03:07:41;;;;;;;19.65;9.63;;;;;;;;;;7391245;19;20361;-68
2022/12/15 03:10:09;;;;;;;19.13;9.15;;;;;;;;;;7388637;19;20136;-68
2022/12/15 03:12:34;;;;;;;19.95;8.50;;;;;;;;;;7391762;19;20395;-68
2022/12/15 03:14:59;;;;;;;17.10;7.55;;;;;;;;;;7390485;19;20058;-67
2022/12/15 03:17:25;;;;;;;18.27;9.15;;;;;;;;;;7391842;19;20006;-68
2022/12/15 03:19:50;;;;;;;17.13;8.63;;;;;;;;;;7390242;19;20089;-67
2022/12/15 03:22:15;;;;;;;22.60;9.27;;;;;;;;;;7392112;19;20043;-68
2022/12/15 03:24:41;;;;;;;19.30;8.45;;;;;;;;;;7390139;19;20003;-67
2022/12/15 03:27:06;;;;;;;18.35;7.90;;;;;;;;;;7389358;19;19998;-67
2022/12/15 03:29:31;;;;;;;17.50;7.97;;;;;;;;;;7390920;19;20003;-68
2022/12/15 03:31:56;;;;;;;17.77;8.07;;;;;;;;;;7390719;19;20002;-68
2022/12/15 03:34:22;;;;;;;20.23;8.65;;;;;;;;;;7391434;19;19999;-67
2022/12/15 03:36:47;;;;;;;20.48;8.85;;;;;;;;;;7391854;19;20007;-68
2022/12/15 03:39:13;;;;;;;18.23;8.73;;;;;;;;;;7389315;19;20016;-68
2022/12/15 03:41:40;;;;;;;15.98;8.50;;;;;;;;;;7390438;19;19995;-67
2022/12/15 03:44:06;;;;;;;18.63;7.88;;;;;;;;;;7389342;19;20018;-67
2022/12/15 03:46:31;;;;;;;16.35;8.27;;;;;;;;;;7390600;19;19998;-67
2022/12/15 03:48:57;;;;;;;25.05;9.85;;;;;;;;;;7392965;19;20007;-67
2022/12/15 03:51:22;;;;;;;18.10;8.43;;;;;;;;;;7391193;19;20006;-67
2022/12/15 03:53:48;;;;;;;17.58;8.75;;;;;;;;;;7388753;19;20002;-67
2022/12/15 03:56:13;;;;;;;18.52;8.02;;;;;;;;;;7391375;19;20369;-67
2022/12/15 03:58:39;;;;;;;17.90;8.77;;;;;;;;;;7390670;19;20002;-67
2022/12/15 04:01:17;;;;;;;21.92;8.82;;;;;;;;;;7390413;19;19999;-68
2022/12/15 04:03:42;;;;;;;20.65;8.30;;;;;;;;;;7389971;19;20318;-67
2022/12/15 04:06:08;;;;;;;18.15;8.15;;;;;;;;;;7389890;19;20067;-68
2022/12/15 04:08:33;;;;;;;14.45;7.25;;;;;;;;;;7394360;19;20086;-68
2022/12/15 04:10:58;;;;;;;17.25;8.70;;;;;;;;;;7390013;19;20009;-68
2022/12/15 04:13:24;;;;;;;19.02;9.00;;;;;;;;;;7391643;19;20004;-67
2022/12/15 04:15:49;;;;;;;17.48;8.48;;;;;;;;;;7390682;19;19998;-67
2022/12/15 04:18:14;;;;;;;14.73;8.25;;;;;;;;;;7389815;19;20341;-67
2022/12/15 04:20:40;;;;;;;16.60;8.77;;;;;;;;;;7388519;19;20022;-68
2022/12/15 04:23:06;;;;;;;20.15;9.13;;;;;;;;;;7389435;19;20062;-67
2022/12/15 05:31:45;;;;;;;18.02;8.02;;;;;;;;;;7387840;19;20023;-68
2022/12/15 05:34:11;;;;;;;18.97;7.90;;;;;;;;;;7385557;19;20062;-67
2022/12/15 05:36:36;;;;;;;22.20;8.30;;;;;;;;;;7387571;19;20245;-67
2022/12/15 05:39:02;;;;;;;21.85;8.10;;;;;;;;;;7389122;19;19991;-67
2022/12/15 05:41:28;;;;;;;19.30;8.18;;;;;;;;;;7387390;19;20494;-67
2022/12/15 05:43:53;;;;;;;29.30;9.43;;;;;;;;;;7385429;19;20206;-67
2022/12/15 05:46:18;;;;;;;25.38;9.55;;;;;;;;;;7387450;19;20011;-67
2022/12/15 05:48:45;;;;;;;19.25;8.77;;;;;;;;;;7387640;19;20104;-67
2022/12/15 05:51:11;;;;;;;18.98;8.63;;;;;;;;;;7387911;19;19995;-67
2022/12/15 05:53:38;;;;;;;21.63;8.15;;;;;;;;;;7323170;19;20050;-67
2022/12/15 05:56:11;;;;;;;21.15;9.05;;;;;;;;;;7386477;19;19995;-67
2022/12/15 05:58:38;;;;;;;14.95;7.57;;;;;;;;;;7387368;19;19998;-68
2022/12/15 06:01:15;;;;;;;15.15;6.88;;;;;;;;;;7387220;19;20028;-68
2022/12/15 06:03:41;;;;;;;21.35;8.77;;;;;;;;;;7383240;19;20377;-68
2022/12/15 06:06:08;;;;;;;26.25;7.38;;;;;;;;;;7385658;19;19999;-69
2022/12/15 06:08:36;;;;;;;16.65;7.93;;;;;;;;;;7388034;19;20309;-66
2022/12/15 06:11:01;;;;;;;13.23;6.35;;;;;;;;;;7394367;19;20022;-66
2022/12/15 06:13:30;;;;;;;15.15;7.28;;;;;;;;;;7394277;19;20010;-67
2022/12/15 06:15:59;;;;;;;19.35;8.70;;;;;;;;;;7395438;19;19998;-67
2022/12/15 06:18:28;;;;;;;14.43;8.23;;;;;;;;;;7397914;19;20358;-67
2022/12/15 06:21:02;;;;;;;21.20;8.52;;;;;;;;;;7397453;19;19991;-67
2022/12/15 06:23:28;;;;;;;13.48;7.80;;;;;;;;;;7394862;19;20499;-67
2022/12/15 06:25:54;;;;;;;21.98;8.02;;;;;;;;;;7396333;19;20096;-67
2022/12/15 06:28:22;;;;;;;23.17;9.65;;;;;;;;;;7396430;19;19998;-67
2022/12/15 06:30:53;;;;;;;15.65;6.75;;;;;;;;;;7398003;19;19995;-67
2022/12/15 06:33:19;;;;;;;21.10;8.55;;;;;;;;;;7393052;19;20007;-66
2022/12/15 06:35:45;;;;;;;16.15;7.97;;;;;;;;;;7389215;19;19994;-66
2022/12/15 06:38:10;;;;;;;17.55;7.22;;;;;;;;;;7391119;19;20022;-71
2022/12/15 06:40:35;;;;;;;11.77;7.22;;;;;;;;;;7388172;19;19998;-71
2022/12/15 06:43:00;;;;;;;15.45;7.13;;;;;;;;;;7390249;19;20019;-67
2022/12/15 06:45:26;;;;;;;18.33;8.10;;;;;;;;;;7390380;19;20454;-67
2022/12/15 06:47:51;;;;;;;14.50;7.80;;;;;;;;;;7335819;19;19998;-66
2022/12/15 06:50:16;;;;;;;16.98;7.38;;;;;;;;;;7392756;19;20468;-67
2022/12/15 06:52:42;;;;;;;19.60;9.50;;;;;;;;;;7395749;19;20004;-66
2022/12/15 06:55:07;;;;;;;16.90;8.05;;;;;;;;;;7396247;19;19991;-67
2022/12/15 06:57:32;;;;;;;15.55;8.60;;;;;;;;;;7394407;19;19995;-67
2022/12/15 06:59:58;;;;;;;31.75;10.40;;;;;;;;;;7393761;19;20017;-67
2022/12/15 07:02:23;;;;;;;28.10;12.00;;;;;;;;;;7391655;19;20001;-67
2022/12/15 07:04:48;;;;;;;23.52;9.35;;;;;;;;;;7375296;19;19991;-65
2022/12/15 07:07:14;;;;;;;29.05;11.27;;;;;;;;;;7392034;19;19995;-67
2022/12/15 07:09:39;;;;;;;28.48;11.88;;;;;;;;;;7392311;19;20001;-66
2022/12/15 07:12:05;;;;;;;35.40;12.38;;;;;;;;;;7394979;19;19994;-67
2022/12/15 07:14:31;;;;;;;34.00;13.68;;;;;;;;;;7394058;19;20062;-66
2022/12/15 07:16:57;;;;;;;28.08;11.13;;;;;;;;;;7391418;19;19999;-68
2022/12/15 07:19:22;;;;;;;22.95;11.18;;;;;;;;;;7391866;19;20006;-65
2022/12/15 07:21:48;;;;;;;26.63;11.18;;;;;;;;;;7395389;19;20777;-67
2022/12/15 07:24:13;;;;;;;26.63;13.07;;;;;;;;;;7392824;19;20460;-67
2022/12/15 07:26:39;;;;;;;38.08;13.20;;;;;;;;;;7393767;19;19999;-67
2022/12/15 07:29:05;;;;;;;22.30;10.77;;;;;;;;;;7392438;19;20377;-67
2022/12/15 07:31:30;;;;;;;52.40;20.15;;;;;;;;;;7391661;19;20019;-67
2022/12/15 07:33:57;;;;;;;27.45;12.02;;;;;;;;;;7393897;19;19999;-65
2022/12/15 07:36:22;;;;;;;31.90;12.30;;;;;;;;;;7391702;19;20403;-67
2022/12/15 07:38:48;;;;;;;25.38;12.25;;;;;;;;;;7392965;19;20098;-67
2022/12/15 07:41:13;;;;;;;27.77;10.90;;;;;;;;;;7391538;19;20185;-67
2022/12/15 07:43:38;;;;;;;28.17;11.25;;;;;;;;;;7392208;19;19999;-66
2022/12/15 07:46:04;;;;;;;16.35;8.15;;;;;;;;;;7393574;19;20003;-66
2022/12/15 07:48:29;;;;;;;31.70;12.93;;;;;;;;;;7391123;19;20015;-66
2022/12/15 07:50:58;;;;;;;19.42;9.35;;;;;;;;;;7392368;19;20005;-65
2022/12/15 07:53:26;;;;;;;32.25;14.43;;;;;;;;;;7392362;19;20015;-67
2022/12/15 07:55:57;;;;;;;26.75;11.07;;;;;;;;;;7394600;19;20076;-67
2022/12/15 07:58:23;;;;;;;30.77;12.15;;;;;;;;;;7391119;19;20066;-67
2022/12/15 08:00:48;;;;;;;26.88;10.66;;;;;;;;;;7339784;19;1005464;-67
2022/12/15 08:03:13;;;;;;;21.88;10.73;;;;;;;;;;7391966;19;19994;-67
2022/12/15 08:05:39;;;;;;;35.40;13.48;;;;;;;;;;7393025;19;19991;-67
2022/12/15 08:08:04;;;;;;;26.20;11.32;;;;;;;;;;7394198;19;19995;-66
2022/12/15 08:10:29;;;;;;;35.53;15.02;;;;;;;;;;7397180;19;20062;-66
2022/12/15 08:12:55;;;;;;;31.05;12.02;;;;;;;;;;7393928;19;20050;-67
2022/12/15 08:15:20;;;;;;;33.20;13.90;;;;;;;;;;7392922;19;20026;-67
2022/12/15 08:17:46;;;;;;;28.35;12.15;;;;;;;;;;7392526;19;20454;-67
2022/12/15 08:20:11;;;;;;;30.90;12.23;;;;;;;;;;7390406;19;20056;-67
2022/12/15 08:22:36;;;;;;;35.58;14.07;;;;;;;;;;7390005;19;20005;-67
2022/12/15 08:25:02;;;;;;;33.20;14.38;;;;;;;;;;7391037;19;20439;-67
2022/12/15 08:27:28;;;;;;;34.20;13.52;;;;;;;;;;7390507;19;20061;-66
2022/12/15 08:29:53;;;;;;;32.58;13.82;;;;;;;;;;7388626;19;19994;-67
2022/12/15 08:32:19;;;;;;;27.25;13.90;;;;;;;;;;7392480;19;20058;-67
2022/12/15 08:34:46;;;;;;;26.65;11.68;;;;;;;;;;7388426;19;20467;-66
2022/12/15 08:37:11;;;;;;;33.47;13.88;;;;;;;;;;7391089;19;19994;-67
2022/12/15 08:39:37;;;;;;;37.08;12.93;;;;;;;;;;7387898;19;20001;-67
2022/12/15 08:42:03;;;;;;;30.38;14.70;;;;;;;;;;7390120;19;19998;-67
2022/12/15 08:44:28;;;;;;;25.45;12.18;;;;;;;;;;7388871;19;19995;-66
2022/12/15 08:46:54;;;;;;;35.55;15.70;;;;;;;;;;7389466;19;20003;-66
2022/12/15 08:49:19;;;;;;;39.90;15.40;;;;;;;;;;7389262;19;20014;-66
2022/12/15 08:51:44;;;;;;;35.70;14.43;;;;;;;;;;7391782;19;19999;-67
2022/12/15 08:54:09;;;;;;;32.60;13.43;;;;;;;;;;7388821;19;19999;-67
2022/12/15 08:56:35;;;;;;;30.92;13.35;;;;;;;;;;7390027;19;20054;-67
2022/12/15 08:59:01;;;;;;;33.45;14.95;;;;;;;;;;7387894;19;20445;-69
2022/12/15 09:01:29;;;;;;;35.17;14.18;;;;;;;;;;7390863;19;20010;-70
2022/12/15 09:03:55;;;;;;;39.67;14.68;;;;;;;;;;7386870;19;20002;-69
2022/12/15 09:06:27;;;;;;;37.30;14.70;;;;;;;;;;7392101;19;20011;-71
2022/12/15 09:08:55;;;;;;;30.70;12.98;;;;;;;;;;7388201;19;20381;-70
2022/12/15 09:11:21;;;;;;;29.88;14.07;;;;;;;;;;7388578;19;19999;-72
2022/12/15 09:13:47;;;;;;;29.92;11.18;;;;;;;;;;7390257;19;20014;-71
2022/12/15 09:16:14;;;;;;;36.67;15.13;;;;;;;;;;7391530;19;19999;-73
2022/12/15 09:18:42;;;;;;;30.70;14.23;;;;;;;;;;7389655;19;19995;-70
2022/12/15 09:21:07;;;;;;;31.00;13.52;;;;;;;;;;7302964;19;20007;-71
2022/12/15 09:23:34;;;;;;;33.88;14.30;;;;;;;;;;7387488;19;19986;-71
2022/12/15 09:26:03;;;;;;;32.85;14.05;;;;;;;;;;7391036;19;19999;-72
2022/12/15 09:28:28;;;;;;;24.42;12.60;;;;;;;;;;7389070;19;20001;-71
2022/12/15 09:31:05;;;;;;;30.55;14.25;;;;;;;;;;7389231;19;20002;-71
2022/12/15 09:33:30;;;;;;;28.75;11.98;;;;;;;;;;7389238;19;19994;-75
2022/12/15 09:35:56;;;;;;;31.45;12.75;;;;;;;;;;7391055;19;19994;-73
2022/12/15 09:38:21;;;;;;;29.15;12.05;;;;;;;;;;7391806;19;19995;-74
2022/12/15 09:40:46;;;;;;;26.27;13.55;;;;;;;;;;7391165;19;20003;-73
2022/12/15 09:43:17;;;;;;;36.80;14.23;;;;;;;;;;7396629;19;19995;-71
2022/12/15 09:45:49;;;;;;;25.20;9.88;;;;;;;;;;7400120;19;20311;-70
2022/12/15 09:48:34;;;;;;;30.10;13.48;;;;;;;;;;7398471;19;20020;-71
2022/12/15 09:51:03;;;;;;;31.50;12.85;;;;;;;;;;7393200;19;20002;-72
2022/12/15 09:53:28;;;;;;;27.40;9.85;;;;;;;;;;7396370;19;20001;-72
2022/12/15 09:56:06;;;;;;;38.22;14.00;;;;;;;;;;7396086;19;20325;-71
2022/12/15 09:58:48;;;;;;;29.85;13.07;;;;;;;;;;7396340;19;20338;-72
2022/12/15 10:01:16;;;;;;;27.75;12.50;;;;;;;;;;7396726;19;19994;-70
2022/12/15 10:04:10;;;;;;;30.65;12.02;;;;;;;;;;7394762;19;20081;-70
2022/12/15 10:06:53;;;;;;;28.02;12.15;;;;;;;;;;7395490;19;20058;-69
2022/12/15 10:09:21;;;;;;;24.88;11.55;;;;;;;;;;7395518;19;20123;-71
2022/12/15 10:11:56;;;;;;;27.55;12.55;;;;;;;;;;7395871;19;20009;-70
2022/12/15 10:14:37;;;;;;;29.13;13.50;;;;;;;;;;7397559;19;20006;-71
2022/12/15 10:17:23;;;;;;;54.45;15.60;;;;;;;;;;7394370;19;20233;-70
2022/12/15 10:20:03;;;;;;;35.67;14.45;;;;;;;;;;7395939;19;20006;-70
2022/12/15 10:22:36;;;;;;;30.27;14.38;;;;;;;;;;7396635;19;20002;-71
2022/12/15 10:25:15;;;;;;;31.17;13.00;;;;;;;;;;7394675;19;19990;-70
2022/12/15 10:27:41;;;;;;;27.13;12.90;;;;;;;;;;7356411;19;20006;-71
2022/12/15 10:30:11;;;;;;;36.10;14.75;;;;;;;;;;7396152;19;20005;-70
2022/12/15 10:32:51;;;;;;;30.20;13.02;;;;;;;;;;7394212;19;19998;-72
2022/12/15 10:35:22;;;;;;;31.52;13.43;;;;;;;;;;7398181;19;20014;-71
2022/12/15 10:37:47;;;;;;;33.30;14.15;;;;;;;;;;7397155;19;19998;-69
2022/12/15 10:40:39;;;;;;;33.75;15.68;;;;;;;;;;7396406;19;20383;-71
2022/12/15 10:43:24;;;;;;;19.23;9.20;;;;;;;;;;7394574;19;19998;-71
2022/12/15 10:45:59;;;;;;;30.67;13.75;;;;;;;;;;7396932;19;19994;-70
2022/12/15 10:48:25;;;;;;;36.35;14.52;;;;;;;;;;7391404;19;20464;-70
2022/12/15 10:50:50;;;;;;;31.83;12.02;;;;;;;;;;7389690;19;19999;-70
2022/12/15 10:53:44;;;;;;;31.48;14.40;;;;;;;;;;7391507;19;20026;-70
2022/12/15 10:56:24;;;;;;;27.33;13.25;;;;;;;;;;7393797;19;20005;-70
2022/12/15 10:58:52;;;;;;;32.83;14.37;;;;;;;;;;7393452;19;19995;-71
2022/12/15 11:01:22;;;;;;;28.08;12.27;;;;;;;;;;7394715;19;19994;-71
2022/12/15 11:03:51;;;;;;;35.47;13.38;;;;;;;;;;7394695;19;20014;-70
2022/12/15 11:06:20;;;;;;;27.30;12.10;;;;;;;;;;7396315;19;20099;-70
2022/12/15 11:08:46;;;;;;;30.90;14.18;;;;;;;;;;7394985;19;20017;-71
2022/12/15 11:14:22;;;;;;;22.05;11.32;;;;;;;;;;7394101;19;20091;-70
2022/12/15 11:16:58;;;;;;;35.08;16.27;;;;;;;;;;7393527;19;20006;-70
2022/12/15 11:19:35;;;;;;;24.60;11.10;;;;;;;;;;7393446;19;20003;-72
2022/12/15 11:22:23;;;;;;;28.13;13.38;;;;;;;;;;7395107;19;20366;-72
2022/12/15 11:24:55;;;;;;;31.48;12.68;;;;;;;;;;7390891;19;19995;-69
2022/12/15 11:27:37;;;;;;;26.67;11.43;;;;;;;;;;7392604;19;19994;-71
2022/12/15 11:30:13;;;;;;;31.95;14.52;;;;;;;;;;7393816;19;20006;-72
2022/12/15 11:32:43;;;;;;;28.60;12.18;;;;;;;;;;7391003;19;19994;-71
2022/12/15 11:35:13;;;;;;;32.78;13.10;;;;;;;;;;7394784;19;20491;-70
2022/12/15 11:37:45;;;;;;;20.15;10.10;;;;;;;;;;7394300;19;20002;-70
2022/12/15 11:40:18;;;;;;;23.15;9.57;;;;;;;;;;7393809;19;20006;-72
2022/12/15 11:43:01;;;;;;;27.88;11.48;;;;;;;;;;7391855;19;20310;-71
2022/12/15 11:45:51;;;;;;;29.63;13.63;;;;;;;;;;7393649;19;19995;-70
2022/12/15 11:48:21;;;;;;;35.80;14.48;;;;;;;;;;7391672;19;19990;-70
2022/12/15 11:51:15;;;;;;;25.13;11.88;;;;;;;;;;7389874;19;19995;-71
2022/12/15 11:53:50;;;;;;;36.28;13.60;;;;;;;;;;7392082;19;20002;-72
2022/12/15 11:56:35;;;;;;;35.00;13.88;;;;;;;;;;7394251;19;19997;-70
2022/12/15 11:59:36;;;;;;;32.13;14.10;;;;;;;;;;7391592;19;20002;-70
2022/12/15 12:03:00;;;;;;;26.63;12.90;;;;;;;;;;7394191;19;19999;-71
2022/12/15 12:05:35;;;;;;;36.70;16.83;;;;;;;;;;7387883;19;20003;-71
2022/12/15 12:08:15;;;;;;;33.38;13.05;;;;;;;;;;7391591;19;19999;-71
2022/12/15 12:10:58;;;;;;;24.52;12.73;;;;;;;;;;7389426;19;19998;-70
2022/12/15 12:13:42;;;;;;;29.33;12.15;;;;;;;;;;7392069;19;20007;-70
2022/12/15 12:16:17;;;;;;;34.35;15.05;;;;;;;;;;7393270;19;19999;-70
2022/12/15 12:18:54;;;;;;;34.90;15.13;;;;;;;;;;7391005;19;19998;-70
2022/12/15 12:21:26;;;;;;;29.02;12.35;;;;;;;;;;7391752;19;20353;-71
2022/12/15 12:23:58;;;;;;;33.22;13.05;;;;;;;;;;7390515;19;20030;-71
2022/12/15 12:27:04;;;;;;;32.25;14.27;;;;;;;;;;7389744;19;19994;-71
2022/12/15 12:29:59;;;;;;;29.73;12.38;;;;;;;;;;7387134;19;20435;-72
2022/12/15 12:32:39;;;;;;;29.25;12.48;;;;;;;;;;7385730;19;19999;-71
2022/12/15 12:35:22;;;;;;;38.53;15.13;;;;;;;;;;7389812;19;20107;-71
2022/12/15 12:38:01;;;;;;;30.58;12.85;;;;;;;;;;7389929;19;19994;-72
2022/12/15 12:40:39;;;;;;;39.53;14.60;;;;;;;;;;7388439;19;20020;-70
2022/12/15 12:43:06;;;;;;;32.58;13.20;;;;;;;;;;7390577;19;20523;-70
2022/12/15 12:45:58;;;;;;;32.85;13.43;;;;;;;;;;7391497;19;20369;-71
2022/12/15 12:48:26;;;;;;;;;;;;;;;;;;7388638;19;20371;-70
2022/12/15 12:51:14;;;;;;;23.45;9.45;;;;;;;;;;7388512;19;19932;-71
2022/12/15 12:53:40;;;;;;;21.02;10.05;;;;;;;;;;7390637;19;20010;-71
2022/12/15 12:56:06;;;;;;;31.67;11.95;;;;;;;;;;7391765;19;20010;-72
2022/12/15 12:58:40;;;;;;;29.30;12.20;;;;;;;;;;7390128;19;19999;-71
2022/12/15 13:01:31;;;;;;;31.33;12.55;;;;;;;;;;7388440;19;20013;-71
2022/12/15 13:04:11;;;;;;;26.90;12.43;;;;;;;;;;7392049;19;20345;-71
2022/12/15 13:06:39;;;;;;;28.73;12.05;;;;;;;;;;7389412;19;20002;-71
2022/12/15 13:09:35;;;;;;;28.45;12.80;;;;;;;;;;7387964;19;20484;-72
2022/12/15 13:12:00;;;;;;;31.13;13.10;;;;;;;;;;7390736;19;20071;-72
2022/12/15 13:14:38;;;;;;;37.35;12.82;;;;;;;;;;7388419;19;20428;-72
2022/12/15 13:17:25;;;;;;;22.75;9.95;;;;;;;;;;7387833;19;20002;-71
2022/12/15 13:19:56;;;;;;;37.05;12.35;;;;;;;;;;7389287;19;20007;-72
2022/12/15 13:22:33;;;;;;;32.67;13.07;;;;;;;;;;7391413;19;20002;-71
2022/12/15 13:24:59;;;;;;;33.20;13.35;;;;;;;;;;7391253;19;19995;-72
2022/12/15 13:27:35;;;;;;;28.17;13.20;;;;;;;;;;7388144;19;19999;-73
2022/12/15 13:30:06;;;;;;;29.15;13.07;;;;;;;;;;7390359;19;19999;-70
2022/12/15 13:32:38;;;;;;;;;;;;;;;;;;7388667;19;20329;-70
2022/12/15 13:35:13;;;;;;;28.83;10.23;;;;;;;;;;7387188;19;19925;-71
2022/12/15 13:37:58;;;;;;;33.45;13.27;;;;;;;;;;7390379;19;20413;-70
2022/12/15 13:40:24;;;;;;;34.97;16.23;;;;;;;;;;7390504;19;20007;-71
2022/12/15 13:42:59;;;;;;;36.10;13.35;;;;;;;;;;7388059;19;20088;-70
2022/12/15 13:45:29;;;;;;;33.63;13.90;;;;;;;;;;7389773;19;20048;-70
2022/12/15 13:47:56;;;;;;;33.85;14.48;;;;;;;;;;7389198;19;20539;-71
2022/12/15 13:50:47;;;;;;;37.45;14.90;;;;;;;;;;7389694;19;20484;-71
2022/12/15 13:53:19;;;;;;;28.50;13.80;;;;;;;;;;7388385;19;20549;-71
2022/12/15 13:56:15;;;;;;;32.05;13.80;;;;;;;;;;7390173;19;20373;-70
2022/12/15 13:58:49;;;;;;;30.30;12.25;;;;;;;;;;7385069;19;20345;-71
2022/12/15 14:01:22;;;;;;;37.45;13.95;;;;;;;;;;7388863;19;20003;-73
2022/12/15 14:04:14;;;;;;;39.35;13.90;;;;;;;;;;7388288;19;19998;-71
2022/12/15 14:06:47;;;;;;;35.28;13.35;;;;;;;;;;7386879;19;20002;-72
2022/12/15 14:09:15;;;;;;;37.03;14.73;;;;;;;;;;7387275;19;20457;-70
2022/12/15 14:11:43;;;;;;;34.08;14.75;;;;;;;;;;7390576;19;20021;-74
2022/12/15 14:14:22;;;;;;;34.40;14.13;;;;;;;;;;7389786;19;20043;-71
2022/12/15 14:16:59;;;;;;;32.42;14.50;;;;;;;;;;7387431;19;20029;-71
2022/12/15 14:19:25;;;;;;;32.38;13.35;;;;;;;;;;7388208;19;20047;-71
2022/12/15 14:21:54;;;;;;;22.55;10.88;;;;;;;;;;7389088;19;20468;-71
2022/12/15 14:24:24;;;;;;;26.17;11.73;;;;;;;;;;7389872;19;20028;-70
2022/12/15 14:26:50;;;;;;;31.67;12.57;;;;;;;;;;7387613;19;20524;-70
2022/12/15 14:29:16;;;;;;;32.70;12.15;;;;;;;;;;7394884;19;20014;-70
2022/12/15 14:31:48;;;;;;;28.92;12.13;;;;;;;;;;7396532;19;19998;-70
2022/12/15 14:34:25;;;;;;;30.95;14.68;;;;;;;;;;7391156;19;20458;-71
2022/12/15 14:36:53;;;;;;;30.77;14.48;;;;;;;;;;7394909;19;20017;-71
2022/12/15 14:39:55;;;;;;;33.15;12.93;;;;;;;;;;7395948;19;20026;-71
2022/12/15 14:42:24;;;;;;;35.47;15.05;;;;;;;;;;7392731;19;20025;-70
2022/12/15 14:44:51;;;;;;;26.23;12.80;;;;;;;;;;7393133;19;20001;-70
2022/12/15 14:47:21;;;;;;;27.50;13.45;;;;;;;;;;7396000;19;20378;-71
2022/12/15 14:49:47;;;;;;;26.70;13.13;;;;;;;;;;7395154;19;20003;-71
2022/12/15 14:52:23;;;;;;;32.83;13.90;;;;;;;;;;7396665;19;20262;-72
2022/12/15 14:55:22;;;;;;;33.80;13.38;;;;;;;;;;7393532;19;20002;-72
2022/12/15 14:57:51;;;;;;;32.63;13.57;;;;;;;;;;7395879;19;20002;-70
2022/12/15 15:00:25;;;;;;;30.13;12.55;;;;;;;;;;7393531;19;21766;-71
2022/12/15 15:03:17;;;;;;;29.48;12.30;;;;;;;;;;7391862;19;20384;-70
2022/12/15 15:06:06;;;;;;;31.65;11.05;;;;;;;;;;7395640;19;20007;-70
2022/12/15 15:08:35;;;;;;;31.92;13.15;;;;;;;;;;7388583;19;20346;-71
2022/12/15 15:11:25;;;;;;;30.95;12.57;;;;;;;;;;7391944;19;20026;-70
2022/12/15 15:13:59;;;;;;;32.65;13.07;;;;;;;;;;7394699;19;20480;-70
2022/12/15 15:16:25;;;;;;;28.80;12.95;;;;;;;;;;7392613;19;19995;-69
2022/12/15 15:18:54;;;;;;;27.45;12.32;;;;;;;;;;7393818;19;20005;-70
2022/12/15 15:21:22;;;;;;;30.88;12.23;;;;;;;;;;7391275;19;20003;-71
2022/12/15 15:24:10;;;;;;;27.55;10.85;;;;;;;;;;7393453;19;20019;-71
2022/12/15 15:26:35;;;;;;;32.55;12.52;;;;;;;;;;7370235;19;20006;-71
2022/12/15 15:29:01;;;;;;;32.10;12.27;;;;;;;;;;7392654;19;19995;-70
2022/12/15 15:31:35;;;;;;;36.65;15.60;;;;;;;;;;7392062;19;20003;-70
2022/12/15 15:34:01;;;;;;;30.58;15.15;;;;;;;;;;7387633;19;20334;-74
2022/12/15 15:36:35;;;;;;;41.28;14.00;;;;;;;;;;7392687;19;19997;-74
2022/12/15 15:39:01;;;;;;;32.47;11.57;;;;;;;;;;7393070;19;20440;-72
2022/12/15 15:41:29;;;;;;;36.20;12.85;;;;;;;;;;7390317;19;20492;-72
2022/12/15 15:43:58;;;;;;;36.13;15.10;;;;;;;;;;7391697;19;20054;-73
2022/12/15 15:46:27;;;;;;;38.17;14.38;;;;;;;;;;7391117;19;20078;-72
2022/12/15 15:49:07;;;;;;;32.95;13.00;;;;;;;;;;7388928;19;20470;-71
2022/12/15 15:51:33;;;;;;;30.88;13.27;;;;;;;;;;7392883;19;20011;-74
2022/12/15 15:54:03;;;;;;;26.85;11.70;;;;;;;;;;7392522;19;20023;-75
2022/12/15 15:56:29;;;;;;;34.70;11.80;;;;;;;;;;7392239;19;20019;-73
2022/12/15 15:58:55;;;;;;;29.40;12.18;;;;;;;;;;7392479;19;20468;-72
2022/12/15 16:01:21;;;;;;;27.20;11.85;;;;;;;;;;7384878;19;20007;-72
2022/12/15 16:03:46;;;;;;;33.03;14.80;;;;;;;;;;7387084;19;20106;-71
2022/12/15 16:06:17;;;;;;;24.42;11.55;;;;;;;;;;7392810;19;20002;-74
2022/12/15 16:08:44;;;;;;;31.75;13.38;;;;;;;;;;7393055;19;19995;-73
2022/12/15 16:11:12;;;;;;;29.30;13.27;;;;;;;;;;7388652;19;20017;-72
2022/12/15 16:13:38;;;;;;;27.58;12.30;;;;;;;;;;7390746;19;20054;-72
2022/12/15 16:16:04;;;;;;;36.33;15.70;;;;;;;;;;7390240;19;20019;-74
2022/12/15 16:18:31;;;;;;;29.17;13.13;;;;;;;;;;7284697;19;20006;-73
2022/12/15 16:20:57;;;;;;;29.02;14.13;;;;;;;;;;7389050;19;20010;-74
2022/12/15 16:23:26;;;;;;;35.38;13.77;;;;;;;;;;7389739;19;20003;-73
2022/12/15 16:25:54;;;;;;;31.10;11.75;;;;;;;;;;7388548;19;20139;-70
2022/12/15 16:28:22;;;;;;;32.47;13.45;;;;;;;;;;7387175;19;20439;-70
2022/12/15 16:30:48;;;;;;;31.70;13.52;;;;;;;;;;7387046;19;20365;-70
2022/12/15 16:33:13;;;;;;;28.23;11.65;;;;;;;;;;7389431;19;20101;-72
2022/12/15 16:35:40;;;;;;;29.08;13.10;;;;;;;;;;7392523;19;20468;-70
2022/12/15 16:38:13;;;;;;;29.42;11.93;;;;;;;;;;7390402;19;20731;-70
2022/12/15 16:40:38;;;;;;;30.92;12.20;;;;;;;;;;7384770;19;20494;-70
2022/12/15 16:43:15;;;;;;;29.42;12.00;;;;;;;;;;7389891;19;20003;-70
2022/12/15 16:45:46;;;;;;;31.75;11.00;;;;;;;;;;7392911;19;20001;-72
2022/12/15 16:48:11;;;;;;;27.35;11.52;;;;;;;;;;7388404;19;20325;-72
2022/12/15 16:50:39;;;;;;;30.80;13.63;;;;;;;;;;7388360;19;20074;-72
2022/12/15 16:53:13;;;;;;;29.30;12.13;;;;;;;;;;7381089;19;20429;-71
2022/12/15 16:55:38;;;;;;;31.48;13.73;;;;;;;;;;7392272;19;19998;-70
2022/12/15 16:58:05;;;;;;;38.00;13.27;;;;;;;;;;7389157;19;20014;-72
2022/12/15 17:00:34;;;;;;;31.95;13.20;;;;;;;;;;7390906;19;20373;-72
2022/12/15 17:03:01;;;;;;;41.30;12.82;;;;;;;;;;7385089;19;20349;-71
2022/12/15 17:05:34;;;;;;;31.38;12.60;;;;;;;;;;7386313;19;19999;-72
2022/12/15 17:08:03;;;;;;;28.75;12.70;;;;;;;;;;7386142;19;20002;-71